createdAt,value
2023-05-05T00:00:10.496Z,14.51
2023-05-05T00:01:10.500Z,14.62
2023-05-05T00:02:10.529Z,14.48
2023-05-05T00:03:10.536Z,14.53
2023-05-05T00:04:10.526Z,14.47
2023-05-05T00:05:10.491Z,14.51
2023-05-05T00:06:10.491Z,14.50
2023-05-05T00:07:10.489Z,14.53
2023-05-05T00:08:10.488Z,14.44
2023-05-05T00:09:10.489Z,14.51
2023-05-05T00:10:10.537Z,14.48
2023-05-05T00:11:10.482Z,14.45
2023-05-05T00:12:10.712Z,14.41
2023-05-05T00:13:10.580Z,14.43
2023-05-05T00:14:10.476Z,14.41
2023-05-05T00:15:10.475Z,14.45
2023-05-05T00:16:10.475Z,14.40
2023-05-05T00:17:10.533Z,14.30
2023-05-05T00:18:10.468Z,14.37
2023-05-05T00:19:10.470Z,14.32
2023-05-05T00:20:10.595Z,14.30
2023-05-05T00:21:10.476Z,14.35
2023-05-05T00:22:10.470Z,14.33
2023-05-05T00:23:10.490Z,14.29
2023-05-05T00:24:10.462Z,14.41
2023-05-05T00:25:10.468Z,14.30
2023-05-05T00:26:10.465Z,14.36
2023-05-05T00:27:10.457Z,14.40
2023-05-05T00:28:10.470Z,14.30
2023-05-05T00:29:10.457Z,14.33
2023-05-05T00:30:10.510Z,14.33
2023-05-05T00:31:10.538Z,14.32
2023-05-05T00:32:10.453Z,14.29
2023-05-05T00:33:10.454Z,14.18
2023-05-05T00:34:10.456Z,14.17
2023-05-05T00:35:10.453Z,14.10
2023-05-05T00:36:10.453Z,13.92
2023-05-05T00:37:10.451Z,13.78
2023-05-05T00:38:10.448Z,13.87
2023-05-05T00:39:10.453Z,13.86
2023-05-05T00:40:10.548Z,13.79
2023-05-05T00:41:10.445Z,13.87
2023-05-05T00:42:10.445Z,13.85
2023-05-05T00:43:10.438Z,13.85
2023-05-05T00:44:10.459Z,13.89
2023-05-05T00:45:10.439Z,13.86
2023-05-05T00:46:10.461Z,13.81
2023-05-05T00:47:10.452Z,13.89
2023-05-05T00:48:10.487Z,13.83
2023-05-05T00:49:10.498Z,13.81
2023-05-05T00:50:10.436Z,13.78
2023-05-05T00:51:10.432Z,13.89
2023-05-05T00:52:10.458Z,13.77
2023-05-05T00:53:10.429Z,13.74
2023-05-05T00:54:10.433Z,13.56
2023-05-05T00:55:10.428Z,13.60
2023-05-05T00:56:10.421Z,13.57
2023-05-05T00:57:10.422Z,13.46
2023-05-05T00:58:10.421Z,13.38
2023-05-05T00:59:10.419Z,13.38
2023-05-05T01:00:10.595Z,13.39
2023-05-05T01:01:10.467Z,13.39
2023-05-05T01:02:10.414Z,13.41
2023-05-05T01:03:10.510Z,13.37
2023-05-05T01:04:10.410Z,13.39
2023-05-05T01:05:10.408Z,13.38
2023-05-05T01:06:10.413Z,13.44
2023-05-05T01:07:10.404Z,13.41
2023-05-05T01:08:10.404Z,13.42
2023-05-05T01:09:10.404Z,13.42
2023-05-05T01:10:19.569Z,13.35
2023-05-05T01:11:10.402Z,13.37
2023-05-05T01:12:10.592Z,13.46
2023-05-05T01:13:10.469Z,13.41
2023-05-05T01:14:10.394Z,13.38
2023-05-05T01:15:10.389Z,13.33
2023-05-05T01:16:10.450Z,13.42
2023-05-05T01:17:10.402Z,13.22
2023-05-05T01:18:10.385Z,13.31
2023-05-05T01:19:10.389Z,13.22
2023-05-05T01:20:10.527Z,13.27
2023-05-05T01:21:10.385Z,13.19
2023-05-05T01:22:10.385Z,13.22
2023-05-05T01:23:10.381Z,13.19
2023-05-05T01:24:10.370Z,13.23
2023-05-05T01:25:10.384Z,13.30
2023-05-05T01:26:10.368Z,13.22
2023-05-05T01:27:10.370Z,13.19
2023-05-05T01:28:10.368Z,13.23
2023-05-05T01:29:10.364Z,13.28
2023-05-05T01:30:10.512Z,13.22
2023-05-05T01:31:10.388Z,13.20
2023-05-05T01:32:10.378Z,13.11
2023-05-05T01:33:10.366Z,13.13
2023-05-05T01:34:10.356Z,13.00
2023-05-05T01:35:10.354Z,12.98
2023-05-05T01:36:10.358Z,12.98
2023-05-05T01:37:10.368Z,12.94
2023-05-05T01:38:10.356Z,12.87
2023-05-05T01:39:10.460Z,12.91
2023-05-05T01:40:10.350Z,12.87
2023-05-05T01:41:10.343Z,12.91
2023-05-05T01:42:10.337Z,12.95
2023-05-05T01:43:10.339Z,12.80
2023-05-05T01:44:10.336Z,12.83
2023-05-05T01:45:10.335Z,12.83
2023-05-05T01:46:10.373Z,12.86
2023-05-05T01:47:10.329Z,12.83
2023-05-05T01:48:10.345Z,12.78
2023-05-05T01:49:10.336Z,12.83
2023-05-05T01:50:10.472Z,12.79
2023-05-05T01:51:10.325Z,12.79
2023-05-05T01:52:10.319Z,12.80
2023-05-05T01:53:10.318Z,12.75
2023-05-05T01:54:10.343Z,12.73
2023-05-05T01:55:10.311Z,12.65
2023-05-05T01:56:10.311Z,12.64
2023-05-05T01:57:10.312Z,12.64
2023-05-05T01:58:10.311Z,12.60
2023-05-05T01:59:10.308Z,12.64
2023-05-05T02:00:10.510Z,12.62
2023-05-05T02:01:10.349Z,12.64
2023-05-05T02:02:10.342Z,12.62
2023-05-05T02:03:10.399Z,12.55
2023-05-05T02:04:10.321Z,12.49
2023-05-05T02:05:10.293Z,12.54
2023-05-05T02:06:10.300Z,12.37
2023-05-05T02:07:10.293Z,12.36
2023-05-05T02:08:10.288Z,12.37
2023-05-05T02:09:10.291Z,12.35
2023-05-05T02:10:10.452Z,12.39
2023-05-05T02:11:10.281Z,12.39
2023-05-05T02:12:10.287Z,12.35
2023-05-05T02:13:10.381Z,12.31
2023-05-05T02:14:10.296Z,12.43
2023-05-05T02:15:10.276Z,12.40
2023-05-05T02:16:10.280Z,12.39
2023-05-05T02:17:10.476Z,12.24
2023-05-05T02:18:10.271Z,12.25
2023-05-05T02:19:10.283Z,12.15
2023-05-05T02:20:10.373Z,12.07
2023-05-05T02:21:10.263Z,12.07
2023-05-05T02:22:10.265Z,12.15
2023-05-05T02:23:10.268Z,12.07
2023-05-05T02:24:10.280Z,12.12
2023-05-05T02:25:10.259Z,12.09
2023-05-05T02:26:10.260Z,12.06
2023-05-05T02:27:10.252Z,11.91
2023-05-05T02:28:10.252Z,11.88
2023-05-05T02:29:10.251Z,11.94
2023-05-05T02:30:10.446Z,11.81
2023-05-05T02:31:10.300Z,11.81
2023-05-05T02:32:10.245Z,11.88
2023-05-05T02:33:10.257Z,11.99
2023-05-05T02:34:10.239Z,11.97
2023-05-05T02:35:10.235Z,11.97
2023-05-05T02:36:10.264Z,11.86
2023-05-05T02:37:10.231Z,11.87
2023-05-05T02:38:10.235Z,11.90
2023-05-05T02:39:10.228Z,11.80
2023-05-05T02:40:10.541Z,11.86
2023-05-05T02:41:10.230Z,11.78
2023-05-05T02:42:10.245Z,11.73
2023-05-05T02:43:10.274Z,11.80
2023-05-05T02:44:10.219Z,11.88
2023-05-05T02:45:10.215Z,11.91
2023-05-05T02:46:10.248Z,11.88
2023-05-05T02:47:10.214Z,11.86
2023-05-05T02:48:10.208Z,11.88
2023-05-05T02:49:10.209Z,11.94
2023-05-05T02:50:10.513Z,11.94
2023-05-05T02:51:10.210Z,11.88
2023-05-05T02:52:10.221Z,11.80
2023-05-05T02:53:10.193Z,11.86
2023-05-05T02:54:10.193Z,11.81
2023-05-05T02:55:10.191Z,11.83
2023-05-05T02:56:10.192Z,11.77
2023-05-05T02:57:10.201Z,11.78
2023-05-05T02:58:10.188Z,11.80
2023-05-05T02:59:10.209Z,11.78
2023-05-05T03:00:10.318Z,11.81
2023-05-05T03:01:10.191Z,11.81
2023-05-05T03:02:10.191Z,11.83
2023-05-05T03:03:10.334Z,11.77
2023-05-05T03:04:10.190Z,11.83
2023-05-05T03:05:10.176Z,11.62
2023-05-05T03:06:10.171Z,11.68
2023-05-05T03:07:10.182Z,11.62
2023-05-05T03:08:10.183Z,11.72
2023-05-05T03:09:10.159Z,11.73
2023-05-05T03:10:10.304Z,11.80
2023-05-05T03:11:10.158Z,11.77
2023-05-05T03:12:10.155Z,11.80
2023-05-05T03:13:10.191Z,11.77
2023-05-05T03:14:10.154Z,11.81
2023-05-05T03:15:10.161Z,11.83
2023-05-05T03:16:10.193Z,11.87
2023-05-05T03:17:10.491Z,11.86
2023-05-05T03:18:10.136Z,11.94
2023-05-05T03:19:10.134Z,11.87
2023-05-05T03:20:10.161Z,11.88
2023-05-05T03:21:10.137Z,11.95
2023-05-05T03:22:10.127Z,11.86
2023-05-05T03:23:10.129Z,11.95
2023-05-05T03:24:10.152Z,11.90
2023-05-05T03:25:10.122Z,11.99
2023-05-05T03:26:10.119Z,11.88
2023-05-05T03:27:10.121Z,11.90
2023-05-05T03:28:10.122Z,12.02
2023-05-05T03:29:10.117Z,12.06
2023-05-05T03:30:10.281Z,12.07
2023-05-05T03:31:10.106Z,12.00
2023-05-05T03:32:10.115Z,11.95
2023-05-05T03:33:10.126Z,11.95
2023-05-05T03:34:10.107Z,12.02
2023-05-05T03:35:10.092Z,12.00
2023-05-05T03:36:10.100Z,11.97
2023-05-05T03:37:10.090Z,12.03
2023-05-05T03:38:10.117Z,11.97
2023-05-05T03:39:10.086Z,11.95
2023-05-05T03:40:10.241Z,12.03
2023-05-05T03:41:10.087Z,11.99
2023-05-05T03:42:10.096Z,12.00
2023-05-05T03:43:10.085Z,12.00
2023-05-05T03:44:10.079Z,11.90
2023-05-05T03:45:10.076Z,11.94
2023-05-05T03:46:10.158Z,11.97
2023-05-05T03:47:10.067Z,11.90
2023-05-05T03:48:10.129Z,11.87
2023-05-05T03:49:10.063Z,11.87
2023-05-05T03:50:10.164Z,11.83
2023-05-05T03:51:10.065Z,11.86
2023-05-05T03:52:10.061Z,11.80
2023-05-05T03:53:10.053Z,11.75
2023-05-05T03:54:10.051Z,11.78
2023-05-05T03:55:10.050Z,11.77
2023-05-05T03:56:10.070Z,11.77
2023-05-05T03:57:10.064Z,11.75
2023-05-05T03:58:10.050Z,11.75
2023-05-05T03:59:10.056Z,11.80
2023-05-05T04:00:10.082Z,11.77
2023-05-05T04:01:10.047Z,11.81
2023-05-05T04:02:10.066Z,11.78
2023-05-05T04:03:10.301Z,11.75
2023-05-05T04:04:10.069Z,11.75
2023-05-05T04:05:10.036Z,11.63
2023-05-05T04:06:10.054Z,11.63
2023-05-05T04:07:10.026Z,11.66
2023-05-05T04:08:10.035Z,11.62
2023-05-05T04:09:10.032Z,11.50
2023-05-05T04:10:10.165Z,11.52
2023-05-05T04:11:10.014Z,11.52
2023-05-05T04:12:10.032Z,11.60
2023-05-05T04:13:10.074Z,11.55
2023-05-05T04:14:10.008Z,11.59
2023-05-05T04:15:10.007Z,11.63
2023-05-05T04:16:10.034Z,11.69
2023-05-05T04:17:10.006Z,11.62
2023-05-05T04:18:10.087Z,11.72
2023-05-05T04:19:10.010Z,11.78
2023-05-05T04:20:10.298Z,11.77
2023-05-05T04:21:09.991Z,11.75
2023-05-05T04:22:10.241Z,11.73
2023-05-05T04:23:09.985Z,11.80
2023-05-05T04:24:09.997Z,11.83
2023-05-05T04:25:09.988Z,11.73
2023-05-05T04:26:10.007Z,11.78
2023-05-05T04:27:09.976Z,11.78
2023-05-05T04:28:10.008Z,11.86
2023-05-05T04:29:09.978Z,11.80
2023-05-05T04:30:10.105Z,11.91
2023-05-05T04:31:09.973Z,11.88
2023-05-05T04:32:09.977Z,12.02
2023-05-05T04:33:09.962Z,12.03
2023-05-05T04:34:09.974Z,12.07
2023-05-05T04:35:09.957Z,12.04
2023-05-05T04:36:09.958Z,12.06
2023-05-05T04:37:09.956Z,11.97
2023-05-05T04:38:09.949Z,12.03
2023-05-05T04:39:09.958Z,12.03
2023-05-05T04:40:10.194Z,12.10
2023-05-05T04:41:09.947Z,12.12
2023-05-05T04:42:09.940Z,12.10
2023-05-05T04:43:09.944Z,12.07
2023-05-05T04:44:09.950Z,12.09
2023-05-05T04:45:09.933Z,12.10
2023-05-05T04:46:09.979Z,12.22
2023-05-05T04:47:11.409Z,12.22
2023-05-05T04:48:09.949Z,12.27
2023-05-05T04:49:09.927Z,12.22
2023-05-05T04:50:10.141Z,12.32
2023-05-05T04:51:09.915Z,12.22
2023-05-05T04:52:09.915Z,12.27
2023-05-05T04:53:09.913Z,12.31
2023-05-05T04:54:09.909Z,12.32
2023-05-05T04:55:09.902Z,12.35
2023-05-05T04:56:09.905Z,12.40
2023-05-05T04:57:09.912Z,12.39
2023-05-05T04:58:09.916Z,12.40
2023-05-05T04:59:09.912Z,12.35
2023-05-05T05:00:10.151Z,12.37
2023-05-05T05:01:09.912Z,12.40
2023-05-05T05:02:09.994Z,12.37
2023-05-05T05:03:09.981Z,12.46
2023-05-05T05:04:09.889Z,12.50
2023-05-05T05:05:09.886Z,12.50
2023-05-05T05:06:09.885Z,12.53
2023-05-05T05:07:09.893Z,12.50
2023-05-05T05:08:09.878Z,12.47
2023-05-05T05:09:09.887Z,12.50
2023-05-05T05:10:10.004Z,12.50
2023-05-05T05:11:09.893Z,12.57
2023-05-05T05:12:09.892Z,12.60
2023-05-05T05:13:12.375Z,12.55
2023-05-05T05:14:09.866Z,12.58
2023-05-05T05:15:09.863Z,12.61
2023-05-05T05:16:09.961Z,12.64
2023-05-05T05:17:09.855Z,12.72
2023-05-05T05:18:09.854Z,12.67
2023-05-05T05:19:09.851Z,12.72
2023-05-05T05:20:10.290Z,12.78
2023-05-05T05:21:09.849Z,12.76
2023-05-05T05:22:09.861Z,12.80
2023-05-05T05:23:09.849Z,12.80
2023-05-05T05:24:09.847Z,12.79
2023-05-05T05:25:09.845Z,12.78
2023-05-05T05:26:09.836Z,12.85
2023-05-05T05:27:10.397Z,12.78
2023-05-05T05:28:10.926Z,12.79
2023-05-05T05:29:09.830Z,12.85
2023-05-05T05:30:10.055Z,12.78
2023-05-05T05:31:09.824Z,12.85
2023-05-05T05:32:09.863Z,12.83
2023-05-05T05:33:09.855Z,12.90
2023-05-05T05:34:12.618Z,12.80
2023-05-05T05:35:09.819Z,12.68
2023-05-05T05:36:09.829Z,12.73
2023-05-05T05:37:09.816Z,12.67
2023-05-05T05:38:09.808Z,12.70
2023-05-05T05:39:09.808Z,12.73
2023-05-05T05:40:10.010Z,12.80
2023-05-05T05:41:09.801Z,12.82
2023-05-05T05:42:09.804Z,12.83
2023-05-05T05:43:09.796Z,12.85
2023-05-05T05:44:09.801Z,12.90
2023-05-05T05:45:09.796Z,12.91
2023-05-05T05:46:09.866Z,12.90
2023-05-05T05:47:09.790Z,12.95
2023-05-05T05:48:09.883Z,12.97
2023-05-05T05:49:09.782Z,12.95
2023-05-05T05:50:09.999Z,12.95
2023-05-05T05:51:09.797Z,13.00
2023-05-05T05:52:09.781Z,13.01
2023-05-05T05:53:09.773Z,12.98
2023-05-05T05:54:09.774Z,12.97
2023-05-05T05:55:09.785Z,13.12
2023-05-05T05:56:09.798Z,13.09
2023-05-05T05:57:09.771Z,13.11
2023-05-05T05:58:09.763Z,13.05
2023-05-05T05:59:09.764Z,13.15
2023-05-05T06:00:10.043Z,13.16
2023-05-05T06:01:09.774Z,13.18
2023-05-05T06:02:09.821Z,13.28
2023-05-05T06:03:09.968Z,13.25
2023-05-05T06:04:09.807Z,13.25
2023-05-05T06:05:09.748Z,13.20
2023-05-05T06:06:09.745Z,13.19
2023-05-05T06:07:09.745Z,13.20
2023-05-05T06:08:09.740Z,13.35
2023-05-05T06:09:09.740Z,13.31
2023-05-05T06:10:25.681Z,13.33
2023-05-05T06:11:09.739Z,13.41
2023-05-05T06:12:09.738Z,13.46
2023-05-05T06:13:09.811Z,13.41
2023-05-05T06:14:09.730Z,13.49
2023-05-05T06:15:09.725Z,13.41
2023-05-05T06:16:09.750Z,13.50
2023-05-05T06:17:09.722Z,13.47
2023-05-05T06:18:09.768Z,13.53
2023-05-05T06:19:09.745Z,13.52
2023-05-05T06:20:09.907Z,13.49
2023-05-05T06:21:09.714Z,13.47
2023-05-05T06:22:09.723Z,13.63
2023-05-05T06:23:09.727Z,13.67
2023-05-05T06:24:09.705Z,13.72
2023-05-05T06:25:09.709Z,13.77
2023-05-05T06:26:09.704Z,13.74
2023-05-05T06:27:10.111Z,13.78
2023-05-05T06:28:09.696Z,13.74
2023-05-05T06:29:11.768Z,13.72
2023-05-05T06:30:09.893Z,13.72
2023-05-05T06:31:09.741Z,13.78
2023-05-05T06:32:09.697Z,13.87
2023-05-05T06:33:09.758Z,13.90
2023-05-05T06:34:09.685Z,13.89
2023-05-05T06:35:09.700Z,13.95
2023-05-05T06:36:09.735Z,13.92
2023-05-05T06:37:09.693Z,13.93
2023-05-05T06:38:09.699Z,14.14
2023-05-05T06:39:09.688Z,14.12
2023-05-05T06:40:09.805Z,14.23
2023-05-05T06:41:09.678Z,14.26
2023-05-05T06:42:09.673Z,14.32
2023-05-05T06:43:09.679Z,14.40
2023-05-05T06:44:09.683Z,14.44
2023-05-05T06:45:09.678Z,14.51
2023-05-05T06:46:09.664Z,14.48
2023-05-05T06:47:09.668Z,14.51
2023-05-05T06:48:09.674Z,14.65
2023-05-05T06:49:09.663Z,14.60
2023-05-05T06:50:09.899Z,14.66
2023-05-05T06:51:09.664Z,14.68
2023-05-05T06:52:09.724Z,14.60
2023-05-05T06:53:09.664Z,14.69
2023-05-05T06:54:09.659Z,14.65
2023-05-05T06:55:09.661Z,14.72
2023-05-05T06:56:09.656Z,14.69
2023-05-05T06:57:09.654Z,14.70
2023-05-05T06:58:09.646Z,14.72
2023-05-05T06:59:09.651Z,14.78
2023-05-05T07:00:09.809Z,14.84
2023-05-05T07:01:09.692Z,14.73
2023-05-05T07:02:09.666Z,14.86
2023-05-05T07:03:09.703Z,14.86
2023-05-05T07:04:09.720Z,14.88
2023-05-05T07:05:09.657Z,14.85
2023-05-05T07:06:09.640Z,14.89
2023-05-05T07:07:09.645Z,15.00
2023-05-05T07:08:09.736Z,14.94
2023-05-05T07:09:09.634Z,15.00
2023-05-05T07:10:09.947Z,15.03
2023-05-05T07:11:09.631Z,15.07
2023-05-05T07:12:09.631Z,15.07
2023-05-05T07:13:09.722Z,15.17
2023-05-05T07:14:09.633Z,15.17
2023-05-05T07:15:26.011Z,15.19
2023-05-05T07:16:09.650Z,15.19
2023-05-05T07:17:09.626Z,15.22
2023-05-05T07:18:09.658Z,15.19
2023-05-05T07:19:09.628Z,15.22
2023-05-05T07:20:10.032Z,15.24
2023-05-05T07:21:09.617Z,15.24
2023-05-05T07:22:09.616Z,15.21
2023-05-05T07:23:09.626Z,15.27
2023-05-05T07:24:09.636Z,15.29
2023-05-05T07:25:09.625Z,15.29
2023-05-05T07:26:09.612Z,15.33
2023-05-05T07:27:09.619Z,15.31
2023-05-05T07:28:09.609Z,15.37
2023-05-05T07:29:09.611Z,15.35
2023-05-05T07:30:13.186Z,15.36
2023-05-05T07:31:09.624Z,15.51
2023-05-05T07:32:10.096Z,15.52
2023-05-05T07:33:09.618Z,15.58
2023-05-05T07:34:09.598Z,15.64
2023-05-05T07:35:09.604Z,15.62
2023-05-05T07:36:09.600Z,15.70
2023-05-05T07:37:09.599Z,15.84
2023-05-05T07:38:10.933Z,15.88
2023-05-05T07:39:09.593Z,15.90
2023-05-05T07:40:10.122Z,15.88
2023-05-05T07:41:09.593Z,16.00
2023-05-05T07:42:09.587Z,16.09
2023-05-05T07:43:09.586Z,16.13
2023-05-05T07:44:09.582Z,16.13
2023-05-05T07:45:09.594Z,16.21
2023-05-05T07:46:09.676Z,16.17
2023-05-05T07:47:09.581Z,16.26
2023-05-05T07:48:09.658Z,16.26
2023-05-05T07:49:09.586Z,16.28
2023-05-05T07:50:10.015Z,16.28
2023-05-05T07:51:09.576Z,16.29
2023-05-05T07:52:09.576Z,16.26
2023-05-05T07:53:14.401Z,16.43
2023-05-05T07:54:09.571Z,16.42
2023-05-05T07:55:09.576Z,16.49
2023-05-05T07:56:09.661Z,16.56
2023-05-05T07:57:09.574Z,16.54
2023-05-05T07:58:09.571Z,16.58
2023-05-05T07:59:09.567Z,16.61
2023-05-05T08:00:09.975Z,16.61
2023-05-05T08:01:09.567Z,16.68
2023-05-05T08:02:09.580Z,16.71
2023-05-05T08:03:11.615Z,16.75
2023-05-05T08:04:09.649Z,16.68
2023-05-05T08:05:09.949Z,16.72
2023-05-05T08:06:09.567Z,16.78
2023-05-05T08:07:09.564Z,16.75
2023-05-05T08:08:09.564Z,16.79
2023-05-05T08:09:09.569Z,16.83
2023-05-05T08:10:09.563Z,16.86
2023-05-05T08:11:09.566Z,16.86
2023-05-05T08:12:09.662Z,16.84
2023-05-05T08:13:09.591Z,16.86
2023-05-05T08:14:09.555Z,16.83
2023-05-05T08:15:09.864Z,16.99
2023-05-05T08:16:09.623Z,17.01
2023-05-05T08:17:09.558Z,16.93
2023-05-05T08:18:09.557Z,17.04
2023-05-05T08:19:21.232Z,17.06
2023-05-05T08:20:09.551Z,17.06
2023-05-05T08:21:09.562Z,17.14
2023-05-05T08:22:09.554Z,17.16
2023-05-05T08:23:09.556Z,17.26
2023-05-05T08:24:09.554Z,17.33
2023-05-05T08:25:09.722Z,17.44
2023-05-05T08:26:09.554Z,17.38
2023-05-05T08:27:09.552Z,17.51
2023-05-05T08:28:09.676Z,17.59
2023-05-05T08:29:09.565Z,17.46
2023-05-05T08:30:09.558Z,17.56
2023-05-05T08:31:09.564Z,17.48
2023-05-05T08:32:10.002Z,17.65
2023-05-05T08:33:09.619Z,17.63
2023-05-05T08:34:09.554Z,17.65
2023-05-05T08:35:09.823Z,17.59
2023-05-05T08:36:09.554Z,17.56
2023-05-05T08:37:09.553Z,17.72
2023-05-05T08:38:09.558Z,17.71
2023-05-05T08:39:09.557Z,17.67
2023-05-05T08:40:09.556Z,17.71
2023-05-05T08:41:09.558Z,17.78
2023-05-05T08:42:09.555Z,17.80
2023-05-05T08:43:09.560Z,17.79
2023-05-05T08:44:09.660Z,17.78
2023-05-05T08:45:10.276Z,17.74
2023-05-05T08:46:09.565Z,17.74
2023-05-05T08:47:09.582Z,17.82
2023-05-05T08:48:09.648Z,17.82
2023-05-05T08:49:09.562Z,17.79
2023-05-05T08:50:09.570Z,17.74
2023-05-05T08:51:09.564Z,17.68
2023-05-05T08:52:09.586Z,17.63
2023-05-05T08:53:09.573Z,17.57
2023-05-05T08:54:09.558Z,17.72
2023-05-05T08:55:09.653Z,17.78
2023-05-05T08:56:09.563Z,17.70
2023-05-05T08:57:09.561Z,17.74
2023-05-05T08:58:09.560Z,17.85
2023-05-05T08:59:09.563Z,17.80
2023-05-05T09:00:09.669Z,17.79
2023-05-05T09:01:09.621Z,17.79
2023-05-05T09:02:09.596Z,17.85
2023-05-05T09:03:09.659Z,17.87
2023-05-05T09:04:09.568Z,17.68
2023-05-05T09:05:09.925Z,17.76
2023-05-05T09:06:09.563Z,17.76
2023-05-05T09:07:09.562Z,17.68
2023-05-05T09:08:09.563Z,17.68
2023-05-05T09:09:09.562Z,17.57
2023-05-05T09:10:09.561Z,17.70
2023-05-05T09:11:09.566Z,17.70
2023-05-05T09:12:09.563Z,17.83
2023-05-05T09:13:09.597Z,17.79
2023-05-05T09:14:09.561Z,17.83
2023-05-05T09:15:09.835Z,17.79
2023-05-05T09:16:09.657Z,17.76
2023-05-05T09:17:09.651Z,17.79
2023-05-05T09:18:09.658Z,17.79
2023-05-05T09:19:09.570Z,17.82
2023-05-05T09:20:09.576Z,17.80
2023-05-05T09:21:09.567Z,17.83
2023-05-05T09:22:09.571Z,17.85
2023-05-05T09:23:09.567Z,17.86
2023-05-05T09:24:09.804Z,17.82
2023-05-05T09:25:09.743Z,17.85
2023-05-05T09:26:09.571Z,17.79
2023-05-05T09:27:09.559Z,17.85
2023-05-05T09:28:09.568Z,17.76
2023-05-05T09:29:09.562Z,17.78
2023-05-05T09:30:09.560Z,17.74
2023-05-05T09:31:09.579Z,17.68
2023-05-05T09:32:09.653Z,17.76
2023-05-05T09:33:09.636Z,17.74
2023-05-05T09:34:09.559Z,17.76
2023-05-05T09:35:09.718Z,17.82
2023-05-05T09:36:09.559Z,17.87
2023-05-05T09:37:09.567Z,17.90
2023-05-05T09:38:09.559Z,17.86
2023-05-05T09:39:09.563Z,17.86
2023-05-05T09:40:09.555Z,17.86
2023-05-05T09:41:09.563Z,17.94
2023-05-05T09:42:09.556Z,17.86
2023-05-05T09:43:09.562Z,17.83
2023-05-05T09:44:09.556Z,17.79
2023-05-05T09:45:09.750Z,17.79
2023-05-05T09:46:09.603Z,17.79
2023-05-05T09:47:18.471Z,17.85
2023-05-05T09:48:09.719Z,17.72
2023-05-05T09:49:09.557Z,17.78
2023-05-05T09:50:09.683Z,17.72
2023-05-05T09:51:09.556Z,17.70
2023-05-05T09:52:09.554Z,17.83
2023-05-05T09:53:09.554Z,17.87
2023-05-05T09:54:09.553Z,17.90
2023-05-05T09:55:09.556Z,17.87
2023-05-05T09:56:09.557Z,17.90
2023-05-05T09:57:09.552Z,18.00
2023-05-05T09:58:09.607Z,17.97
2023-05-05T09:59:09.556Z,18.00
2023-05-05T10:00:09.771Z,17.98
2023-05-05T10:01:09.580Z,17.94
2023-05-05T10:02:09.556Z,18.05
2023-05-05T10:03:09.620Z,17.98
2023-05-05T10:04:09.706Z,18.00
2023-05-05T10:05:09.614Z,17.97
2023-05-05T10:06:09.567Z,17.95
2023-05-05T10:07:09.549Z,18.01
2023-05-05T10:08:09.546Z,17.98
2023-05-05T10:09:09.545Z,18.08
2023-05-05T10:10:09.884Z,18.13
2023-05-05T10:11:09.547Z,18.15
2023-05-05T10:12:09.543Z,18.20
2023-05-05T10:13:09.628Z,18.25
2023-05-05T10:14:09.548Z,18.20
2023-05-05T10:15:09.584Z,18.20
2023-05-05T10:16:09.631Z,18.20
2023-05-05T10:17:09.544Z,18.25
2023-05-05T10:18:09.593Z,18.33
2023-05-05T10:19:09.545Z,18.37
2023-05-05T10:20:09.772Z,18.23
2023-05-05T10:21:09.543Z,18.10
2023-05-05T10:22:09.542Z,18.11
2023-05-05T10:23:09.559Z,18.04
2023-05-05T10:24:09.543Z,18.04
2023-05-05T10:25:09.546Z,17.95
2023-05-05T10:26:09.539Z,17.92
2023-05-05T10:27:11.570Z,17.92
2023-05-05T10:28:09.558Z,17.94
2023-05-05T10:29:09.542Z,17.90
2023-05-05T10:30:09.835Z,17.98
2023-05-05T10:31:23.827Z,17.90
2023-05-05T10:32:33.554Z,17.97
2023-05-05T10:34:09.635Z,18.05
2023-05-05T10:35:09.556Z,18.04
2023-05-05T10:36:09.641Z,18.01
2023-05-05T10:37:09.549Z,18.08
2023-05-05T10:38:09.563Z,18.16
2023-05-05T10:39:09.565Z,18.05
2023-05-05T10:40:09.805Z,18.08
2023-05-05T10:41:09.547Z,18.07
2023-05-05T10:42:09.549Z,18.08
2023-05-05T10:43:09.553Z,18.10
2023-05-05T10:44:09.558Z,18.10
2023-05-05T10:45:09.635Z,18.11
2023-05-05T10:46:09.640Z,18.07
2023-05-05T10:47:09.548Z,18.04
2023-05-05T10:48:09.708Z,17.95
2023-05-05T10:49:11.621Z,17.98
2023-05-05T10:50:09.815Z,17.94
2023-05-05T10:51:09.549Z,17.87
2023-05-05T10:52:09.568Z,17.92
2023-05-05T10:53:09.563Z,17.89
2023-05-05T10:54:09.731Z,17.83
2023-05-05T10:55:09.545Z,17.87
2023-05-05T10:56:09.546Z,17.89
2023-05-05T10:57:09.547Z,17.92
2023-05-05T10:58:09.543Z,17.98
2023-05-05T10:59:09.547Z,18.01
2023-05-05T11:00:09.751Z,18.11
2023-05-05T11:01:09.579Z,18.01
2023-05-05T11:02:09.545Z,18.00
2023-05-05T11:03:09.646Z,17.95
2023-05-05T11:04:09.598Z,17.95
2023-05-05T11:05:09.584Z,17.95
2023-05-05T11:06:09.543Z,17.95
2023-05-05T11:07:12.690Z,17.83
2023-05-05T11:08:09.669Z,17.90
2023-05-05T11:09:09.540Z,17.98
2023-05-05T11:10:09.963Z,18.00
2023-05-05T11:11:09.540Z,17.89
2023-05-05T11:12:09.539Z,17.97
2023-05-05T11:13:09.558Z,17.92
2023-05-05T11:14:09.537Z,17.85
2023-05-05T11:15:09.539Z,17.86
2023-05-05T11:16:09.554Z,17.72
2023-05-05T11:17:09.544Z,17.78
2023-05-05T11:18:09.566Z,17.71
2023-05-05T11:19:09.616Z,17.70
2023-05-05T11:20:09.735Z,17.72
2023-05-05T11:21:09.552Z,17.68
2023-05-05T11:22:09.543Z,17.57
2023-05-05T11:23:09.537Z,17.60
2023-05-05T11:24:09.562Z,17.59
2023-05-05T11:25:09.536Z,17.54
2023-05-05T11:26:09.540Z,17.57
2023-05-05T11:27:09.530Z,17.52
2023-05-05T11:28:09.538Z,17.56
2023-05-05T11:29:09.536Z,17.52
2023-05-05T11:30:09.917Z,17.51
2023-05-05T11:31:09.556Z,17.49
2023-05-05T11:32:09.939Z,17.51
2023-05-05T11:33:09.542Z,17.51
2023-05-05T11:34:09.533Z,17.42
2023-05-05T11:35:09.530Z,17.54
2023-05-05T11:36:09.551Z,17.36
2023-05-05T11:37:09.534Z,17.41
2023-05-05T11:38:09.532Z,17.31
2023-05-05T11:39:09.527Z,17.19
2023-05-05T11:40:09.777Z,17.14
2023-05-05T11:41:09.527Z,17.15
2023-05-05T11:42:11.024Z,17.08
2023-05-05T11:43:09.527Z,17.02
2023-05-05T11:44:09.537Z,16.96
2023-05-05T11:45:09.525Z,16.96
2023-05-05T11:46:09.571Z,16.90
2023-05-05T11:47:09.526Z,16.78
2023-05-05T11:48:09.558Z,16.75
2023-05-05T11:49:09.523Z,16.74
2023-05-05T11:50:09.735Z,16.69
2023-05-05T11:51:09.522Z,16.58
2023-05-05T11:52:09.544Z,16.61
2023-05-05T11:53:09.521Z,16.54
2023-05-05T11:54:09.523Z,16.56
2023-05-05T11:55:09.521Z,16.54
2023-05-05T11:56:09.542Z,16.56
2023-05-05T11:57:09.531Z,16.57
2023-05-05T11:58:09.522Z,16.54
2023-05-05T11:59:09.557Z,16.54
2023-05-05T12:00:09.740Z,16.56
2023-05-05T12:01:09.554Z,16.51
2023-05-05T12:02:09.525Z,16.47
2023-05-05T12:03:09.573Z,16.51
2023-05-05T12:04:09.735Z,16.41
2023-05-05T12:05:09.519Z,16.49
2023-05-05T12:06:09.518Z,16.43
2023-05-05T12:07:09.532Z,16.39
2023-05-05T12:08:09.531Z,16.35
2023-05-05T12:09:09.512Z,16.36
2023-05-05T12:10:09.746Z,16.26
2023-05-05T12:11:09.517Z,16.29
2023-05-05T12:12:09.610Z,16.36
2023-05-05T12:13:09.551Z,16.31
2023-05-05T12:14:09.527Z,16.39
2023-05-05T12:15:09.680Z,16.33
2023-05-05T12:16:09.595Z,16.35
2023-05-05T12:17:09.522Z,16.31
2023-05-05T12:18:09.542Z,16.36
2023-05-05T12:19:09.507Z,16.31
2023-05-05T12:20:09.892Z,16.31
2023-05-05T12:21:09.509Z,16.24
2023-05-05T12:22:09.508Z,16.16
2023-05-05T12:23:09.509Z,16.13
2023-05-05T12:24:09.515Z,16.04
2023-05-05T12:25:09.519Z,15.94
2023-05-05T12:26:09.506Z,16.00
2023-05-05T12:27:09.512Z,15.95
2023-05-05T12:28:09.613Z,15.95
2023-05-05T12:29:09.525Z,15.92
2023-05-05T12:30:09.750Z,15.92
2023-05-05T12:31:09.598Z,15.95
2023-05-05T12:32:09.780Z,15.98
2023-05-05T12:33:09.513Z,15.95
2023-05-05T12:34:09.520Z,16.05
2023-05-05T12:35:09.533Z,16.09
2023-05-05T12:36:09.502Z,16.08
2023-05-05T12:37:09.500Z,16.13
2023-05-05T12:38:09.558Z,16.20
2023-05-05T12:39:09.511Z,16.15
2023-05-05T12:40:09.723Z,16.15
2023-05-05T12:41:09.510Z,16.20
2023-05-05T12:42:09.499Z,16.23
2023-05-05T12:43:09.495Z,16.31
2023-05-05T12:44:09.601Z,16.21
2023-05-05T12:45:09.506Z,16.26
2023-05-05T12:46:09.613Z,16.33
2023-05-05T12:47:09.504Z,16.36
2023-05-05T12:48:09.496Z,16.36
2023-05-05T12:49:09.495Z,16.39
2023-05-05T12:50:09.674Z,16.43
2023-05-05T12:51:09.493Z,16.33
2023-05-05T12:52:09.497Z,16.31
2023-05-05T12:53:09.498Z,16.29